createdAt,value
2018-07-05T00:01:31.340Z,2.60
2018-07-05T00:04:06.273Z,2.57
2018-07-05T00:06:39.871Z,2.97
2018-07-05T00:09:13.693Z,2.40
2018-07-05T00:11:47.638Z,3.00
2018-07-05T00:14:21.800Z,3.13
2018-07-05T00:16:56.131Z,2.77
2018-07-05T00:19:30.842Z,3.13
2018-07-05T00:22:04.897Z,3.10
2018-07-05T00:24:38.781Z,2.70
2018-07-05T00:27:13.539Z,3.07
2018-07-05T00:29:47.523Z,3.03
2018-07-05T00:32:22.175Z,3.20
2018-07-05T00:34:56.358Z,2.93
2018-07-05T00:37:31.573Z,2.93
2018-07-05T00:40:06.120Z,2.53
2018-07-05T00:42:39.742Z,2.40
2018-07-05T00:45:13.799Z,3.00
2018-07-05T00:47:47.627Z,3.07
2018-07-05T00:50:23.064Z,2.57
2018-07-05T00:52:58.948Z,3.23
2018-07-05T00:55:33.039Z,3.17
2018-07-05T00:58:06.897Z,3.07
2018-07-05T01:00:40.981Z,2.97
2018-07-05T01:03:14.844Z,3.30
2018-07-05T01:05:48.688Z,3.17
2018-07-05T01:08:23.981Z,2.70
2018-07-05T01:10:57.920Z,3.47
2018-07-05T01:13:32.888Z,3.30
2018-07-05T01:16:06.961Z,3.13
2018-07-05T01:18:41.111Z,2.70
2018-07-05T01:21:16.326Z,2.93
2018-07-05T01:23:50.667Z,2.80
2018-07-05T01:26:25.697Z,2.83
2018-07-05T01:28:59.756Z,3.60
2018-07-05T01:31:34.415Z,2.83
2018-07-05T01:34:09.547Z,2.97
2018-07-05T01:36:44.616Z,2.77
2018-07-05T01:39:19.103Z,2.70
2018-07-05T01:41:53.263Z,2.90
2018-07-05T01:44:28.595Z,2.50
2018-07-05T01:47:02.344Z,2.67
2018-07-05T01:49:38.071Z,3.40
2018-07-05T01:52:13.151Z,3.13
2018-07-05T01:54:47.471Z,3.07
2018-07-05T01:57:21.575Z,3.20
2018-07-05T01:59:56.088Z,2.93
2018-07-05T02:02:30.722Z,2.93
2018-07-05T02:05:04.741Z,2.77
2018-07-05T02:07:38.991Z,3.03
2018-07-05T02:10:12.752Z,2.73
2018-07-05T02:12:47.215Z,3.10
2018-07-05T02:15:21.282Z,3.40
2018-07-05T02:17:55.099Z,3.07
2018-07-05T02:20:30.398Z,2.73
2018-07-05T02:23:04.233Z,2.90
2018-07-05T02:25:39.786Z,3.10
2018-07-05T02:28:13.593Z,3.43
2018-07-05T02:30:47.371Z,3.20
2018-07-05T02:33:23.462Z,3.17
2018-07-05T02:35:57.864Z,2.70
2018-07-05T02:38:32.688Z,3.30
2018-07-05T02:41:07.020Z,3.63
2018-07-05T02:43:41.141Z,3.00
2018-07-05T02:46:15.150Z,2.80
2018-07-05T02:48:48.747Z,3.07
2018-07-05T02:51:23.164Z,3.40
2018-07-05T02:53:57.313Z,3.17
2018-07-05T02:56:33.642Z,3.20
2018-07-05T02:59:07.631Z,3.40
2018-07-05T03:01:41.853Z,2.90
2018-07-05T03:04:15.981Z,2.97
2018-07-05T03:06:49.991Z,3.10
2018-07-05T03:09:25.610Z,3.10
2018-07-05T03:11:59.240Z,3.50
2018-07-05T03:14:33.887Z,3.33
2018-07-05T03:17:07.769Z,2.80
2018-07-05T03:19:41.678Z,3.30
2018-07-05T03:22:15.873Z,3.33
2018-07-05T03:24:49.694Z,3.00
2018-07-05T03:27:23.691Z,3.07
2018-07-05T03:29:58.545Z,3.23
2018-07-05T03:32:33.096Z,3.13
2018-07-05T03:35:07.161Z,3.27
2018-07-05T03:37:41.589Z,2.70
2018-07-05T03:40:15.681Z,3.60
2018-07-05T03:42:50.256Z,2.90
2018-07-05T03:45:24.235Z,3.27
2018-07-05T03:47:58.144Z,2.93
2018-07-05T03:50:32.570Z,2.80
2018-07-05T03:53:07.318Z,3.97
2018-07-05T03:55:41.277Z,3.20
2018-07-05T03:58:15.650Z,3.60
2018-07-05T04:00:50.779Z,2.83
2018-07-05T04:03:25.116Z,3.70
2018-07-05T04:05:59.891Z,3.10
2018-07-05T04:08:34.530Z,3.10
2018-07-05T04:11:09.547Z,3.03
2018-07-05T04:13:47.112Z,2.90
2018-07-05T04:16:22.370Z,3.10
2018-07-05T04:18:57.567Z,3.13
2018-07-05T04:21:31.953Z,2.90
2018-07-05T04:24:06.008Z,3.33
2018-07-05T04:26:40.012Z,3.20
2018-07-05T04:29:14.640Z,3.40
2018-07-05T04:31:48.306Z,3.63
2018-07-05T04:34:22.627Z,3.27
2018-07-05T04:36:56.440Z,3.30
2018-07-05T04:39:30.322Z,3.83
2018-07-05T04:42:04.131Z,3.10
2018-07-05T04:44:38.142Z,3.30
2018-07-05T04:47:12.241Z,3.40
2018-07-05T04:49:46.333Z,3.53
2018-07-05T04:52:20.305Z,3.40
2018-07-05T04:54:56.377Z,3.17
2018-07-05T04:57:31.924Z,3.17
2018-07-05T05:00:07.028Z,3.70
2018-07-05T05:02:40.803Z,3.70
2018-07-05T05:05:15.243Z,3.43
2018-07-05T05:07:47.982Z,3.40
2018-07-05T05:10:21.823Z,3.70
2018-07-05T05:12:56.252Z,3.70
2018-07-05T05:15:31.469Z,3.47
2018-07-05T05:18:05.822Z,3.50
2018-07-05T05:20:39.624Z,3.70
2018-07-05T05:23:14.949Z,3.63
2018-07-05T05:25:48.898Z,3.80
2018-07-05T05:28:23.292Z,4.07
2018-07-05T05:30:56.686Z,4.00
2018-07-05T05:33:30.265Z,4.00
2018-07-05T05:36:05.615Z,3.90
2018-07-05T05:38:39.727Z,3.97
2018-07-05T05:41:14.865Z,3.97
2018-07-05T05:43:48.828Z,3.70
2018-07-05T05:46:24.264Z,3.90
2018-07-05T05:48:58.259Z,3.27
2018-07-05T05:51:32.466Z,3.83
2018-07-05T05:54:06.474Z,3.43
2018-07-05T05:56:40.758Z,3.90
2018-07-05T05:59:14.471Z,4.07
2018-07-05T06:01:48.536Z,3.70
2018-07-05T06:04:22.694Z,3.90
2018-07-05T06:06:57.336Z,4.30
2018-07-05T06:09:31.680Z,3.60
2018-07-05T06:12:05.327Z,3.90
2018-07-05T06:14:39.159Z,3.80
2018-07-05T06:17:14.533Z,3.93
2018-07-05T06:19:48.153Z,3.83
2018-07-05T06:22:22.090Z,4.10
2018-07-05T06:24:55.829Z,3.80
2018-07-05T06:27:32.429Z,4.30
2018-07-05T06:30:07.069Z,4.00
2018-07-05T06:32:40.552Z,4.53
2018-07-05T06:35:15.502Z,3.57
2018-07-05T06:37:48.910Z,3.70
2018-07-05T06:40:23.583Z,3.63
2018-07-05T06:42:58.534Z,4.43
2018-07-05T06:45:33.464Z,3.37
2018-07-05T06:48:07.026Z,4.10
2018-07-05T06:50:41.795Z,3.90
2018-07-05T06:53:16.776Z,4.10
2018-07-05T06:55:50.945Z,3.50
2018-07-05T06:58:25.067Z,3.90
2018-07-05T07:01:00.250Z,4.83
2018-07-05T07:03:34.345Z,3.60
2018-07-05T07:06:10.067Z,3.70
2018-07-05T07:08:44.305Z,3.97
2018-07-05T07:11:19.425Z,4.07
2018-07-05T07:13:53.181Z,3.87
2018-07-05T07:16:27.981Z,3.50
2018-07-05T07:19:02.011Z,3.93
2018-07-05T07:21:36.953Z,4.10
2018-07-05T07:24:11.576Z,3.50
2018-07-05T07:26:46.515Z,4.27
2018-07-05T07:29:23.066Z,4.20
2018-07-05T07:31:57.481Z,3.27
2018-07-05T07:34:32.478Z,4.20
2018-07-05T07:37:08.525Z,3.50
2018-07-05T07:39:43.341Z,3.90
2018-07-05T07:42:12.994Z,3.73
2018-07-05T07:44:41.101Z,4.10
2018-07-05T07:47:10.413Z,4.13
2018-07-05T07:49:38.342Z,2.93
2018-07-05T07:52:06.380Z,3.70
2018-07-05T07:54:34.941Z,2.97
2018-07-05T07:57:02.969Z,2.80
2018-07-05T07:59:30.439Z,2.67
2018-07-05T08:01:58.451Z,2.70
2018-07-05T08:04:25.992Z,2.80
2018-07-05T08:06:53.637Z,2.80
2018-07-05T08:09:22.203Z,2.60
2018-07-05T08:11:50.073Z,2.90
2018-07-05T08:14:17.611Z,2.97
2018-07-05T08:16:45.828Z,3.10
2018-07-05T08:19:13.311Z,3.13
2018-07-05T08:21:40.957Z,2.63
2018-07-05T08:24:08.994Z,2.13
2018-07-05T08:26:37.394Z,2.70
2018-07-05T08:29:06.017Z,2.90
2018-07-05T09:15:13.349Z,2.03
2018-07-05T09:17:41.438Z,2.37
2018-07-05T09:20:09.566Z,3.50
2018-07-05T09:22:37.176Z,2.40
2018-07-05T09:25:05.557Z,2.63
2018-07-05T09:27:33.522Z,2.70
2018-07-05T09:30:01.219Z,2.73
2018-07-05T09:32:29.173Z,2.40
2018-07-05T09:34:58.444Z,2.70
2018-07-05T09:37:26.349Z,2.93
2018-07-05T09:39:54.112Z,3.20
2018-07-05T09:42:21.976Z,2.53
2018-07-05T09:44:49.473Z,2.00
2018-07-05T09:47:17.109Z,2.37
2018-07-05T09:49:45.465Z,2.57
2018-07-05T09:52:13.380Z,2.73
2018-07-05T09:54:40.878Z,2.50
2018-07-05T09:57:08.602Z,2.60
2018-07-05T09:59:36.156Z,2.37
2018-07-05T10:02:03.728Z,2.00
2018-07-05T10:04:31.583Z,1.97
2018-07-05T10:06:59.441Z,2.13
2018-07-05T10:09:28.295Z,2.10
2018-07-05T10:11:57.523Z,2.73
2018-07-05T10:14:25.231Z,2.10
2018-07-05T10:16:54.097Z,2.10
2018-07-05T10:19:22.774Z,2.13
2018-07-05T10:21:50.862Z,2.10
2018-07-05T10:24:19.207Z,2.57
2018-07-05T10:26:46.736Z,2.17
2018-07-05T10:29:22.115Z,2.27
2018-07-05T10:31:56.221Z,2.00
2018-07-05T10:34:27.491Z,2.67
2018-07-05T10:36:57.405Z,1.90
2018-07-05T10:39:26.001Z,2.23
2018-07-05T10:42:00.222Z,2.20
2018-07-05T10:44:33.897Z,2.30
2018-07-05T10:47:08.322Z,2.20
2018-07-05T10:49:42.848Z,2.23
2018-07-05T10:52:18.511Z,2.57
2018-07-05T10:54:54.844Z,2.80
2018-07-05T10:57:32.074Z,2.60
2018-07-05T11:00:08.180Z,2.43
2018-07-05T11:02:41.900Z,3.50
2018-07-05T11:05:16.961Z,2.70
2018-07-05T11:07:52.571Z,2.90
2018-07-05T11:10:31.421Z,2.13
2018-07-05T11:13:07.271Z,2.10
2018-07-05T11:15:43.350Z,1.83
2018-07-05T11:18:19.589Z,2.27
2018-07-05T11:20:53.761Z,2.10
2018-07-05T11:23:28.623Z,2.70
2018-07-05T11:26:03.832Z,2.50
2018-07-05T11:28:40.799Z,2.23
2018-07-05T11:31:14.806Z,3.50
2018-07-05T11:33:49.331Z,2.57
2018-07-05T11:36:24.421Z,1.93
2018-07-05T11:38:58.753Z,2.17
2018-07-05T11:41:32.865Z,1.93
2018-07-05T11:44:06.549Z,2.30
2018-07-05T11:46:41.162Z,2.40
2018-07-05T11:49:17.927Z,2.40
2018-07-05T11:51:54.490Z,2.70
2018-07-05T11:54:28.331Z,1.90
2018-07-05T11:57:02.155Z,1.87
2018-07-05T11:59:37.424Z,1.83
2018-07-05T12:02:11.496Z,2.13
2018-07-05T12:04:45.242Z,2.00
2018-07-05T12:07:20.598Z,2.00
2018-07-05T12:09:54.529Z,1.87
2018-07-05T12:12:28.671Z,1.97
2018-07-05T12:15:03.492Z,1.90
2018-07-05T12:17:38.276Z,2.00
2018-07-05T12:20:12.577Z,1.97
2018-07-05T12:22:46.660Z,2.20
2018-07-05T12:25:23.534Z,2.10
2018-07-05T12:27:57.827Z,2.00
2018-07-05T12:30:32.062Z,2.00
2018-07-05T12:33:06.256Z,1.77
2018-07-05T12:35:41.282Z,2.00
2018-07-05T12:38:15.088Z,2.07
2018-07-05T12:40:49.403Z,2.00
2018-07-05T12:43:23.025Z,2.10
2018-07-05T12:45:58.430Z,2.20
2018-07-05T12:48:32.412Z,2.63
2018-07-05T12:51:06.311Z,2.57
2018-07-05T12:53:39.868Z,2.50
2018-07-05T12:56:14.233Z,2.50
2018-07-05T12:58:48.861Z,2.80
2018-07-05T13:01:24.460Z,4.10
2018-07-05T13:03:58.146Z,3.70
2018-07-05T13:06:32.836Z,3.23
2018-07-05T13:09:08.436Z,3.87
2018-07-05T13:11:42.469Z,3.23
2018-07-05T13:14:16.227Z,3.00
2018-07-05T13:16:50.814Z,2.80
2018-07-05T13:19:25.517Z,3.00
2018-07-05T13:22:03.190Z,2.40
2018-07-05T13:24:38.099Z,2.87
2018-07-05T13:27:12.476Z,3.00
2018-07-05T13:29:46.772Z,3.53
2018-07-05T13:32:23.289Z,3.13
2018-07-05T13:34:58.207Z,3.13
2018-07-05T13:37:34.039Z,3.13
2018-07-05T13:40:08.728Z,3.20
2018-07-05T13:42:42.846Z,3.13
2018-07-05T13:45:19.250Z,3.00
2018-07-05T13:47:55.268Z,3.20
2018-07-05T13:50:29.357Z,3.23
2018-07-05T13:53:07.274Z,2.73
2018-07-05T13:55:42.311Z,3.20
2018-07-05T13:58:17.453Z,2.90
2018-07-05T14:00:51.465Z,3.40
2018-07-05T14:03:26.150Z,2.80
2018-07-05T14:06:06.647Z,3.27
2018-07-05T14:08:42.237Z,2.90
2018-07-05T14:11:17.434Z,3.00
2018-07-05T14:13:52.282Z,3.50
2018-07-05T14:16:27.567Z,2.53
2018-07-05T14:19:01.874Z,3.00
2018-07-05T14:21:35.964Z,2.90
2018-07-05T14:24:11.527Z,2.67
2018-07-05T14:26:48.718Z,3.23
2018-07-05T14:29:23.044Z,3.40
2018-07-05T14:31:57.126Z,3.77
2018-07-05T14:34:31.606Z,3.63
2018-07-05T14:37:06.062Z,3.67
2018-07-05T14:39:39.953Z,3.70
2018-07-05T14:42:15.369Z,3.80
2018-07-05T14:44:49.547Z,4.00
2018-07-05T14:47:24.635Z,3.63
2018-07-05T14:50:01.492Z,3.70
2018-07-05T14:52:35.515Z,3.13
2018-07-05T14:55:09.253Z,3.23
2018-07-05T14:57:44.539Z,2.90
2018-07-05T15:00:19.469Z,3.80
2018-07-05T15:02:55.748Z,3.33
2018-07-05T15:05:29.900Z,3.07
2018-07-05T15:08:05.438Z,3.03
2018-07-05T15:10:44.715Z,3.67
2018-07-05T15:13:19.634Z,3.20
2018-07-05T15:15:54.627Z,3.47
2018-07-05T15:18:29.641Z,3.30
2018-07-05T15:21:09.280Z,2.90
2018-07-05T15:23:43.717Z,2.90
2018-07-05T15:26:17.593Z,3.30
2018-07-05T15:28:52.132Z,2.50
2018-07-05T15:31:27.246Z,2.63
2018-07-05T15:34:05.819Z,3.17
2018-07-05T15:36:41.657Z,2.70
2018-07-05T15:39:16.013Z,2.47
2018-07-05T15:41:51.457Z,3.10
2018-07-05T15:44:25.724Z,2.97
2018-07-05T15:47:00.463Z,3.47
2018-07-05T15:49:34.982Z,3.20
2018-07-05T15:52:10.239Z,3.47
2018-07-05T15:54:45.394Z,3.43
2018-07-05T15:57:20.507Z,3.50
2018-07-05T15:59:55.465Z,3.60
2018-07-05T16:02:30.764Z,3.73
2018-07-05T16:05:07.118Z,3.93
2018-07-05T16:07:43.313Z,4.50
2018-07-05T16:10:17.971Z,4.10
2018-07-05T16:12:53.310Z,3.13
2018-07-05T16:15:27.663Z,3.50
2018-07-05T16:18:05.721Z,3.60
2018-07-05T16:20:41.279Z,2.57
2018-07-05T16:23:15.747Z,2.93
2018-07-05T16:25:50.371Z,3.07
2018-07-05T16:28:24.829Z,3.00
2018-07-05T16:30:58.680Z,3.57
2018-07-05T16:33:34.557Z,4.03
2018-07-05T16:36:10.263Z,4.37
2018-07-05T16:38:44.722Z,4.50
2018-07-05T16:41:18.786Z,3.90
2018-07-05T16:43:54.769Z,3.83
2018-07-05T16:46:29.302Z,3.23
2018-07-05T16:49:04.368Z,3.30
2018-07-05T16:51:38.580Z,3.57
2018-07-05T16:54:26.229Z,3.70
2018-07-05T16:57:00.896Z,3.07
2018-07-05T16:59:35.641Z,3.33
2018-07-05T17:02:11.254Z,2.67
2018-07-05T17:04:45.708Z,2.50
2018-07-05T17:07:21.145Z,2.67
2018-07-05T17:09:56.187Z,2.80
2018-07-05T17:12:31.497Z,2.60
2018-07-05T17:15:15.458Z,2.60
2018-07-05T17:17:50.629Z,3.10
2018-07-05T17:20:24.984Z,2.60
2018-07-05T17:23:00.255Z,3.03
2018-07-05T17:25:34.286Z,3.00
2018-07-05T17:28:11.913Z,2.87
2018-07-05T17:30:49.373Z,3.03
2018-07-05T17:33:25.845Z,2.70
2018-07-05T17:35:59.844Z,3.10
2018-07-05T17:38:34.808Z,2.80
2018-07-05T17:41:12.812Z,2.70
2018-07-05T17:43:49.081Z,2.80
2018-07-05T17:46:24.325Z,2.40
2018-07-05T17:51:41.529Z,2.37
2018-07-05T17:54:17.648Z,2.57
2018-07-05T17:57:00.418Z,2.63
2018-07-05T17:59:41.738Z,2.87
2018-07-05T18:02:15.969Z,3.20
2018-07-05T18:04:50.526Z,3.20
2018-07-05T18:07:26.488Z,2.97
2018-07-05T18:10:01.772Z,3.50
2018-07-05T18:12:35.977Z,4.37
2018-07-05T18:15:10.525Z,3.93
2018-07-05T18:17:45.972Z,5.50
2018-07-05T18:20:21.561Z,5.03
2018-07-05T18:22:56.261Z,5.03
2018-07-05T18:25:30.812Z,5.00
2018-07-05T18:28:05.031Z,5.07
2018-07-05T18:30:39.888Z,4.73
2018-07-05T18:33:14.425Z,5.60
2018-07-05T18:35:50.021Z,4.27
2018-07-05T18:38:30.304Z,5.23
2018-07-05T18:41:05.197Z,5.13
2018-07-05T18:43:39.488Z,4.77
2018-07-05T18:46:13.101Z,5.33
2018-07-05T18:48:48.256Z,5.10
2018-07-05T18:51:24.350Z,4.70
2018-07-05T18:54:00.901Z,4.17
2018-07-05T18:56:35.596Z,5.20
2018-07-05T18:59:10.970Z,4.60
2018-07-05T19:01:48.176Z,4.60
2018-07-05T19:04:25.847Z,4.03
2018-07-05T19:07:03.743Z,5.20
2018-07-05T19:09:40.440Z,4.37
2018-07-05T19:12:15.650Z,4.00
2018-07-05T19:14:50.716Z,4.20
2018-07-05T19:17:26.353Z,4.30
2018-07-05T19:20:03.874Z,4.23
2018-07-05T19:22:40.760Z,4.03
2018-07-05T19:25:16.418Z,4.83
2018-07-05T19:27:52.605Z,5.00
2018-07-05T19:30:27.139Z,5.40
2018-07-05T19:33:04.348Z,4.83
2018-07-05T19:35:40.310Z,4.47
2018-07-05T19:38:18.835Z,5.10
2018-07-05T19:40:53.349Z,4.57
2018-07-05T19:43:27.921Z,4.30
2018-07-05T19:46:04.210Z,5.10
2018-07-05T19:48:39.372Z,4.57
2018-07-05T19:51:13.341Z,5.00
2018-07-05T19:53:48.180Z,5.33
2018-07-05T19:56:24.933Z,4.30
2018-07-05T19:59:01.284Z,5.00
2018-07-05T20:01:36.707Z,4.47
2018-07-05T20:04:18.330Z,5.63
2018-07-05T20:06:53.803Z,5.40
2018-07-05T20:09:29.644Z,5.90
2018-07-05T20:12:07.408Z,5.13
2018-07-05T20:14:42.101Z,5.23
2018-07-05T20:17:16.819Z,5.57
2018-07-05T20:19:51.320Z,5.90
2018-07-05T20:22:26.699Z,5.60
2018-07-05T20:25:01.120Z,5.07
2018-07-05T20:27:37.283Z,5.50
2018-07-05T20:30:13.386Z,5.80
2018-07-05T20:32:48.312Z,5.57
2018-07-05T20:35:23.724Z,6.00
2018-07-05T20:37:58.623Z,6.53
2018-07-05T20:40:35.313Z,5.10
2018-07-05T20:43:10.878Z,6.27
2018-07-05T20:45:45.295Z,6.83
2018-07-05T20:48:20.136Z,6.37
2018-07-05T20:50:57.167Z,6.50
2018-07-05T20:53:33.138Z,6.70
2018-07-05T20:56:09.153Z,7.10
2018-07-05T20:58:45.085Z,6.90
2018-07-05T21:01:20.954Z,7.57
2018-07-05T21:03:58.121Z,7.30
2018-07-05T21:06:33.408Z,7.07
2018-07-05T21:09:08.900Z,6.60
2018-07-05T21:11:43.856Z,7.00
2018-07-05T21:14:18.766Z,7.23
2018-07-05T21:16:54.126Z,5.80
2018-07-05T21:19:29.331Z,7.57
2018-07-05T21:22:04.829Z,9.40
2018-07-05T21:24:39.271Z,10.37
2018-07-05T21:27:15.533Z,9.70
2018-07-05T21:29:51.142Z,9.17
2018-07-05T21:32:25.202Z,9.40
2018-07-05T21:34:58.931Z,9.73
2018-07-05T21:37:32.826Z,9.63
2018-07-05T21:40:08.166Z,8.47
2018-07-05T21:42:44.207Z,7.77
2018-07-05T21:45:18.164Z,8.63
2018-07-05T21:47:53.246Z,8.83
2018-07-05T21:50:26.985Z,8.70
2018-07-05T21:53:01.819Z,8.80
2018-07-05T21:55:36.531Z,9.43
2018-07-05T21:58:13.926Z,9.20
2018-07-05T22:00:49.952Z,9.53
2018-07-05T22:03:24.008Z,8.60
2018-07-05T22:06:00.933Z,9.97
2018-07-05T22:08:36.256Z,9.97
2018-07-05T22:11:09.785Z,9.90
2018-07-05T22:13:44.334Z,8.73
2018-07-05T22:16:18.734Z,10.33
2018-07-05T22:18:59.923Z,9.17
2018-07-05T22:21:40.476Z,10.30
2018-07-05T22:24:21.514Z,10.10
2018-07-05T22:26:56.055Z,9.33
2018-07-05T22:29:37.529Z,10.33
2018-07-05T22:32:12.043Z,9.30
2018-07-05T22:34:45.885Z,9.60
2018-07-05T22:37:20.969Z,9.30
2018-07-05T22:39:55.217Z,9.97
2018-07-05T22:42:29.690Z,9.73
2018-07-05T22:45:03.790Z,10.17
2018-07-05T22:47:38.014Z,10.57
2018-07-05T22:50:12.690Z,10.77
2018-07-05T22:52:47.357Z,10.87
2018-07-05T22:58:57.709Z,10.50
2018-07-05T23:01:31.390Z,10.83
2018-07-05T23:04:05.556Z,11.50
2018-07-05T23:06:39.729Z,11.20
2018-07-05T23:09:14.017Z,12.40
2018-07-05T23:11:47.859Z,12.70
2018-07-05T23:14:21.855Z,11.20
2018-07-05T23:16:57.223Z,12.57
2018-07-05T23:19:32.081Z,13.60
2018-07-05T23:22:05.683Z,12.17
2018-07-05T23:24:39.673Z,12.10
2018-07-05T23:27:13.866Z,13.10
2018-07-05T23:29:48.011Z,12.93
2018-07-05T23:32:22.385Z,12.90
2018-07-05T23:34:56.760Z,13.70
2018-07-05T23:37:32.339Z,14.27
2018-07-05T23:40:07.180Z,13.50
2018-07-05T23:42:42.228Z,14.03
2018-07-05T23:45:16.221Z,13.87
2018-07-05T23:47:50.645Z,12.53
2018-07-05T23:50:26.599Z,13.60
2018-07-05T23:53:00.579Z,12.70
2018-07-05T23:55:34.035Z,13.10
2018-07-05T23:58:08.425Z,12.00
